Airfield :
LOGIN :

Register | Disclaimer

   EN    FR    IT 

 










Legend :    VFR   Marginal VFR   IFR   Intensive IFR   Very Intensive IFR
Visi :
Ceiling :
>= 8 km
>= 3000ft
5 to 8 km
1000 to 3000 ft
1500m to 5 km
500 to 1000 ft
800 to 1500m
200 to 500 ft
< 800m
< 200 ft
Symbols :   Thunderstorms  Fog  Heavy snow  Heavy precipitations  Wind > 20 kt
SIGMETs :     Misc.  Thunderstorms  Icing  Turbulence  Mountain Waves  Volcanic Ashes







- Airport Elevation : 412 ft
- IATA code : ORE
- Download approach charts


LFOJ - Orleans

CURRENT METAR :
  • 172230Z AUTO 21008KT CAVOK 19/19 Q1009

EXPIRED METARs :
  • 172200Z AUTO 21008KT CAVOK 19/19 Q1010
  • 172130Z AUTO 22007KT 9999 FEW006 BKN130 OVC210 19/19 Q1010
  • 172100Z AUTO 21006KT 9999 BKN014 OVC130 19/19 Q1010
  • 172030Z AUTO 24007KT 9999 SCT008 BKN014 BKN023 19/19 Q1010
  • 172000Z AUTO 25009KT 9999 -RA OVC008 20/19 Q1010

TAF AMD TAF LFOJ
Valid from the 17 at 10:00 until the 18 at 09:00 UTC


171005Z 1710/1809 20015KT 7000 -RA BKN006 OVC012
TEMPO 1710/1712 4000 RA OVC004
TEMPO 1714/1719 2000 DZRA OVC003
TEMPO 1807/1809 24020G30KT SHRA BKN008 BKN020TCU
No reported NOTAMs for that airfield.



MET'MAP, your aeronautical weather chart ! - Copyright ORBIFLY December 2007 - Disclaimer

ORBIFLY MET'MAP TEAM :

Programming & Development : Alexandra Zaïnal
Concept & Development : Baudouin d'Aumeries
Co-Development & Prog : Marc-Olivier Méhu
Technical & hardware support : Manuel Goepfert

Contact : metmap@orbifly.com




SOURCES & CREDITS :

   NOAA